Time;durP1;ratioP1;P1;durP2;ratioP2;P2;SDS_P1;SDS_P2;PMS_P1;PMS_P2;Temp;Humidity;BMP_temperature;BMP_pressure;BME280_temperature;BME280_humidity;BME280_pressure;Samples;Min_cycle;Max_cycle;Signal;HPM_P1;HPM_P2
2023/07/29 00:00:27;;;;;;;0.10;0.10;;;;;;;17.98;58.52;99439.44;7350531;19;20014;-56
2023/07/29 00:02:53;;;;;;;0.10;0.10;;;;;;;18.01;58.17;99449.78;7354499;19;20018;-57
2023/07/29 00:05:18;;;;;;;0.10;0.10;;;;;;;17.96;58.82;99451.94;7354795;19;20025;-54
2023/07/29 00:07:44;;;;;;;0.10;0.10;;;;;;;17.86;58.79;99436.75;7354769;19;20724;-57
2023/07/29 00:10:09;;;;;;;0.00;0.00;;;;;;;17.75;58.73;99427.94;7354382;19;20021;-56
2023/07/29 00:12:35;;;;;;;0.00;0.00;;;;;;;17.80;58.85;99447.75;7356023;19;20744;-56
2023/07/29 00:15:00;;;;;;;0.10;0.10;;;;;;;17.75;59.42;99449.91;7354002;19;20017;-56
2023/07/29 00:17:26;;;;;;;0.10;0.10;;;;;;;17.68;59.71;99435.41;7353669;19;20021;-56
2023/07/29 00:19:51;;;;;;;0.00;0.00;;;;;;;17.56;59.06;99428.38;7352512;19;20017;-56
2023/07/29 00:22:16;;;;;;;0.08;0.08;;;;;;;17.59;59.68;99444.00;7347977;19;20037;-54
2023/07/29 00:24:42;;;;;;;0.03;0.03;;;;;;;17.53;59.64;99441.78;7356257;19;20014;-56
2023/07/29 00:27:07;;;;;;;0.05;0.05;;;;;;;17.51;59.83;99435.78;7354745;19;20056;-56
2023/07/29 00:29:33;;;;;;;0.10;0.10;;;;;;;17.47;59.98;99435.16;7353920;19;20387;-57
2023/07/29 00:31:58;;;;;;;0.00;0.00;;;;;;;17.45;60.30;99431.78;7353623;19;20006;-56
2023/07/29 00:34:24;;;;;;;0.00;0.00;;;;;;;17.43;60.25;99430.19;7355053;19;20014;-57
2023/07/29 00:36:49;;;;;;;0.00;0.00;;;;;;;17.40;60.53;99427.78;7355747;19;20011;-54
2023/07/29 00:39:15;;;;;;;0.00;0.00;;;;;;;17.36;60.58;99433.28;7355484;19;20054;-56
2023/07/29 00:41:40;;;;;;;0.00;0.00;;;;;;;17.34;60.55;99423.78;7351514;19;20014;-57
2023/07/29 00:44:06;;;;;;;0.00;0.00;;;;;;;17.30;60.71;99427.59;7354928;19;20038;-56
2023/07/29 00:46:34;;;;;;;0.00;0.00;;;;;;;17.29;60.42;99432.03;7356508;19;20030;-56
2023/07/29 00:49:00;;;;;;;0.10;0.10;;;;;;;17.23;60.61;99427.16;7355182;19;20024;-56
2023/07/29 00:51:25;;;;;;;0.10;0.10;;;;;;;17.22;60.86;99430.75;7356258;19;20011;-57
2023/07/29 00:53:51;;;;;;;0.10;0.10;;;;;;;17.18;60.82;99429.28;7346641;19;20010;-54
2023/07/29 00:56:16;;;;;;;0.00;0.00;;;;;;;17.14;61.05;99435.75;7354454;19;20086;-54
2023/07/29 00:58:42;;;;;;;0.05;0.05;;;;;;;16.97;60.66;99415.81;7353430;19;20763;-57
2023/07/29 01:01:08;;;;;;;0.10;0.10;;;;;;;17.07;61.67;99431.84;7353742;19;20015;-56
2023/07/29 01:03:34;;;;;;;0.10;0.10;;;;;;;17.02;61.88;99424.25;7348062;19;20010;-56
2023/07/29 01:06:16;;;;;;;0.00;0.00;;;;;;;17.02;61.11;99428.69;7351311;19;20006;-55
2023/07/29 01:09:01;;;;;;;0.10;0.10;;;;;;;17.02;60.52;99420.75;7355761;19;20010;-56
2023/07/29 01:11:52;;;;;;;0.10;0.10;;;;;;;16.98;62.14;99432.47;7351579;19;20731;-56
2023/07/29 01:14:51;;;;;;;0.00;0.00;;;;;;;17.01;59.71;99421.72;7252506;19;2004429;-54
2023/07/29 01:17:23;;;;;;;0.10;0.10;;;;;;;16.99;61.26;99431.53;7251342;19;2004115;-57
2023/07/29 01:20:03;;;;;;;0.00;0.00;;;;;;;16.99;61.00;99434.19;7351411;19;20866;-56
2023/07/29 01:22:30;;;;;;;0.00;0.00;;;;;;;16.97;62.26;99436.06;7350191;19;20086;-55
2023/07/29 01:24:56;;;;;;;0.10;0.10;;;;;;;16.97;62.44;99417.59;7354374;19;20036;-56
2023/07/29 01:27:22;;;;;;;0.10;0.10;;;;;;;16.98;62.36;99427.19;7355591;19;20022;-56
2023/07/29 01:29:47;;;;;;;0.10;0.10;;;;;;;16.98;62.38;99433.34;7351967;19;20014;-56
2023/07/29 01:32:28;;;;;;;0.10;0.10;;;;;;;16.99;60.47;99434.19;7350953;19;20491;-56
2023/07/29 01:34:59;;;;;;;0.10;0.10;;;;;;;16.97;61.31;99421.06;7351970;19;20014;-54
2023/07/29 01:37:27;;;;;;;0.10;0.10;;;;;;;16.95;62.22;99423.00;7352986;19;20006;-56
2023/07/29 01:39:57;;;;;;;0.00;0.00;;;;;;;16.82;62.27;99401.88;7351984;19;20025;-56
2023/07/29 01:42:24;;;;;;;0.00;0.00;;;;;;;16.90;61.93;99419.00;7354672;19;20158;-56
2023/07/29 01:44:50;;;;;;;0.10;0.10;;;;;;;16.86;62.46;99424.47;7352318;19;20010;-55
2023/07/29 01:47:16;;;;;;;0.00;0.00;;;;;;;16.85;62.07;99422.78;7356491;19;20017;-56
2023/07/29 01:49:41;;;;;;;0.10;0.10;;;;;;;16.83;61.86;99424.69;7350718;19;20430;-56
2023/07/29 01:52:07;;;;;;;0.10;0.10;;;;;;;16.79;62.50;99423.22;7347989;19;20039;-55
2023/07/29 01:54:32;;;;;;;0.10;0.10;;;;;;;16.76;62.77;99412.88;7353719;19;20006;-55
2023/07/29 01:56:57;;;;;;;0.00;0.00;;;;;;;16.73;62.90;99418.38;7348358;19;20102;-56
2023/07/29 01:59:23;;;;;;;0.00;0.00;;;;;;;16.71;62.41;99414.09;7347677;19;20030;-56
2023/07/29 02:01:48;;;;;;;0.00;0.00;;;;;;;16.69;62.28;99411.56;7353658;19;20022;-54
2023/07/29 02:04:14;;;;;;;0.05;0.05;;;;;;;16.63;62.15;99412.00;7357058;19;20069;-55
2023/07/29 02:06:39;;;;;;;0.00;0.00;;;;;;;16.63;62.38;99417.28;7352952;19;20018;-54
2023/07/29 02:09:05;;;;;;;0.10;0.10;;;;;;;16.59;62.61;99416.63;7353019;19;20137;-56
2023/07/29 02:11:30;;;;;;;0.00;0.00;;;;;;;16.56;63.17;99421.25;7351888;19;20400;-56
2023/07/29 02:13:56;;;;;;;0.00;0.00;;;;;;;16.54;62.62;99420.53;7352694;19;20002;-54
2023/07/29 02:16:23;;;;;;;0.10;0.10;;;;;;;16.50;62.81;99433.06;7353150;19;20086;-55
2023/07/29 02:18:49;;;;;;;0.03;0.03;;;;;;;16.37;63.06;99407.63;7352777;19;20023;-55
2023/07/29 02:21:15;;;;;;;0.00;0.00;;;;;;;16.46;63.41;99425.47;7350558;19;20057;-51
2023/07/29 02:23:41;;;;;;;0.00;0.00;;;;;;;16.43;63.31;99433.59;7354796;19;20046;-56
2023/07/29 02:26:06;;;;;;;0.00;0.00;;;;;;;16.40;63.50;99428.50;7353128;19;20030;-54
2023/07/29 02:28:31;;;;;;;0.10;0.10;;;;;;;16.38;63.55;99427.78;7355912;19;20010;-54
2023/07/29 02:31:19;;;;;;;0.00;0.00;;;;;;;16.38;61.08;99431.25;7351353;19;20026;-56
2023/07/29 02:33:45;;;;;;;0.00;0.00;;;;;;;16.23;63.68;99414.69;7253310;19;2004531;-54
2023/07/29 02:36:12;;;;;;;0.00;0.00;;;;;;;16.30;63.61;99428.28;7353305;19;20014;-55
2023/07/29 02:38:38;;;;;;;0.00;0.00;;;;;;;16.27;63.62;99431.97;7356067;19;20027;-56
2023/07/29 02:41:03;;;;;;;0.03;0.03;;;;;;;16.26;62.82;99425.00;7354054;19;20028;-55
2023/07/29 02:43:29;;;;;;;0.10;0.10;;;;;;;16.24;63.00;99420.78;7344412;19;20014;-55
2023/07/29 02:45:54;;;;;;;0.00;0.00;;;;;;;16.20;63.69;99414.88;7355180;19;20023;-56
2023/07/29 02:48:20;;;;;;;0.08;0.08;;;;;;;16.19;63.66;99418.47;7353056;19;20367;-56
2023/07/29 02:50:45;;;;;;;0.00;0.00;;;;;;;16.16;63.77;99410.75;7347118;19;20010;-56
2023/07/29 02:53:10;;;;;;;0.03;0.03;;;;;;;16.14;64.04;99410.03;7347159;19;20013;-55
2023/07/29 02:55:39;;;;;;;0.00;0.00;;;;;;;16.13;63.69;99404.88;7354959;19;20021;-55
2023/07/29 02:58:05;;;;;;;0.00;0.00;;;;;;;16.09;63.99;99404.22;7350070;19;20014;-54
2023/07/29 03:00:33;;;;;;;0.10;0.10;;;;;;;15.98;63.71;99396.19;7354371;19;20084;-55
2023/07/29 03:02:59;;;;;;;0.00;0.00;;;;;;;16.06;64.67;99407.88;7346042;19;20050;-56
2023/07/29 03:05:27;;;;;;;0.00;0.00;;;;;;;16.06;64.38;99402.59;7353757;19;20654;-56
2023/07/29 03:07:52;;;;;;;0.00;0.00;;;;;;;16.02;64.50;99405.56;7352953;19;20125;-56
2023/07/29 03:10:18;;;;;;;0.00;0.00;;;;;;;16.01;64.34;99398.59;7354411;19;20034;-56
2023/07/29 03:12:43;;;;;;;0.10;0.10;;;;;;;16.00;64.45;99397.75;7348520;19;20121;-55
2023/07/29 03:15:09;;;;;;;0.03;0.03;;;;;;;15.99;64.62;99406.59;7354181;19;20014;-57
2023/07/29 03:17:34;;;;;;;0.00;0.00;;;;;;;15.94;64.35;99397.31;7349011;19;20022;-56
2023/07/29 03:20:00;;;;;;;0.10;0.10;;;;;;;15.95;64.27;99407.75;7327580;19;20021;-56
2023/07/29 03:22:25;;;;;;;0.00;0.00;;;;;;;15.91;63.94;99398.34;7355898;19;20026;-54
2023/07/29 03:24:51;;;;;;;0.08;0.08;;;;;;;15.92;64.03;99399.22;7347401;19;20018;-55
2023/07/29 03:27:16;;;;;;;0.10;0.10;;;;;;;15.91;63.94;99405.41;7354910;19;20038;-51
2023/07/29 03:29:42;;;;;;;0.10;0.10;;;;;;;15.90;64.37;99406.34;7352385;19;20498;-56
2023/07/29 03:32:07;;;;;;;0.10;0.10;;;;;;;15.88;64.04;99403.84;7354651;19;20030;-55
2023/07/29 03:34:33;;;;;;;0.10;0.10;;;;;;;15.87;64.29;99409.22;7352632;19;20025;-54
2023/07/29 03:37:00;;;;;;;0.00;0.00;;;;;;;15.85;63.62;99413.72;7360495;19;20029;-56
2023/07/29 03:39:26;;;;;;;0.00;0.00;;;;;;;15.83;63.96;99406.75;7361530;19;20761;-55
2023/07/29 03:41:51;;;;;;;0.03;0.03;;;;;;;15.82;63.91;99410.34;7361343;19;20014;-55
2023/07/29 03:44:18;;;;;;;0.00;0.00;;;;;;;15.79;64.11;99402.63;7355856;19;20014;-55
2023/07/29 03:46:44;;;;;;;0.00;0.00;;;;;;;15.72;64.24;99404.00;7361195;19;20048;-56
2023/07/29 03:49:09;;;;;;;0.03;0.03;;;;;;;15.75;64.35;99409.03;7360341;19;20014;-55
2023/07/29 03:51:34;;;;;;;0.10;0.10;;;;;;;15.74;64.60;99407.34;7356471;19;20021;-55
2023/07/29 03:54:00;;;;;;;0.10;0.10;;;;;;;15.73;64.16;99412.72;7361350;19;20011;-55
2023/07/29 03:56:25;;;;;;;0.00;0.00;;;;;;;15.72;63.82;99408.41;7359212;19;20014;-55
2023/07/29 03:58:52;;;;;;;0.00;0.00;;;;;;;15.70;64.20;99405.84;7352941;19;20506;-56
2023/07/29 04:01:18;;;;;;;0.00;0.00;;;;;;;15.68;64.20;99402.50;7361209;19;20022;-57
2023/07/29 04:03:45;;;;;;;0.00;0.00;;;;;;;15.67;64.33;99410.50;7358962;19;20019;-56
2023/07/29 04:06:10;;;;;;;0.00;0.00;;;;;;;15.65;63.92;99413.22;7361197;19;20101;-54
2023/07/29 04:08:35;;;;;;;0.10;0.10;;;;;;;15.65;64.33;99407.94;7354715;19;20855;-56
2023/07/29 04:11:01;;;;;;;0.00;0.00;;;;;;;15.63;63.60;99415.09;7360786;19;20017;-54
2023/07/29 04:13:26;;;;;;;0.00;0.00;;;;;;;15.49;64.29;99391.41;7360011;19;20037;-56
2023/07/29 04:15:52;;;;;;;0.00;0.00;;;;;;;15.61;64.01;99416.09;7360425;19;20042;-54
2023/07/29 04:18:17;;;;;;;0.08;0.08;;;;;;;15.59;64.33;99410.94;7356924;19;20011;-55
2023/07/29 04:20:43;;;;;;;0.03;0.03;;;;;;;15.50;63.85;99398.38;7359898;19;20010;-56
2023/07/29 04:23:08;;;;;;;0.00;0.00;;;;;;;15.55;64.23;99401.56;7356271;19;20102;-56
2023/07/29 04:25:34;;;;;;;0.10;0.10;;;;;;;15.53;64.52;99408.72;7357296;19;20066;-56
2023/07/29 04:27:59;;;;;;;0.10;0.10;;;;;;;15.51;64.19;99410.56;7357814;19;20015;-53
2023/07/29 04:30:24;;;;;;;0.10;0.10;;;;;;;15.44;64.38;99398.75;7356892;19;20034;-55
2023/07/29 04:32:50;;;;;;;0.00;0.00;;;;;;;15.48;64.11;99422.16;7354144;19;20017;-56
2023/07/29 04:35:15;;;;;;;0.00;0.00;;;;;;;15.45;64.51;99424.97;7357575;19;20023;-56
2023/07/29 04:37:41;;;;;;;0.08;0.08;;;;;;;15.44;64.22;99422.44;7356555;19;20010;-54
2023/07/29 04:40:07;;;;;;;0.00;0.00;;;;;;;15.38;63.97;99421.03;7357537;19;20006;-56
2023/07/29 04:42:32;;;;;;;0.08;0.08;;;;;;;15.41;64.27;99430.50;7357344;19;20127;-55
2023/07/29 04:44:58;;;;;;;0.00;0.00;;;;;;;15.40;63.55;99428.81;7355640;19;20066;-53
2023/07/29 04:47:23;;;;;;;0.00;0.00;;;;;;;15.38;64.13;99421.03;7357443;19;20044;-56
2023/07/29 04:49:49;;;;;;;0.03;0.03;;;;;;;15.31;64.18;99420.59;7354108;19;20025;-56
2023/07/29 04:52:15;;;;;;;0.00;0.00;;;;;;;15.34;64.11;99423.97;7356779;19;20030;-55
2023/07/29 04:54:41;;;;;;;0.00;0.00;;;;;;;15.24;64.34;99403.50;7358514;19;20002;-55
2023/07/29 04:57:06;;;;;;;0.00;0.00;;;;;;;15.29;64.57;99419.81;7354361;19;20006;-55
2023/07/29 04:59:31;;;;;;;0.00;0.00;;;;;;;15.29;64.61;99426.88;7357523;19;20007;-54
2023/07/29 05:01:57;;;;;;;0.10;0.10;;;;;;;15.28;64.49;99426.03;7355152;19;20745;-54
2023/07/29 05:04:23;;;;;;;0.00;0.00;;;;;;;15.29;64.15;99427.72;7356775;19;20006;-56
2023/07/29 05:06:48;;;;;;;0.00;0.00;;;;;;;15.17;63.61;99401.34;7354699;19;20042;-56
2023/07/29 05:09:18;;;;;;;0.00;0.00;;;;;;;15.28;64.35;99420.78;7357554;19;20018;-56
2023/07/29 05:11:48;;;;;;;0.00;0.00;;;;;;;15.26;64.22;99417.41;7357199;19;20035;-55
2023/07/29 05:14:15;;;;;;;0.03;0.03;;;;;;;15.26;64.21;99417.41;7357871;19;20130;-54
2023/07/29 05:16:40;;;;;;;0.00;0.00;;;;;;;15.26;64.16;99421.81;7358216;19;20019;-56
2023/07/29 05:19:06;;;;;;;0.00;0.00;;;;;;;15.25;64.15;99415.69;7352679;19;20637;-56
2023/07/29 05:21:31;;;;;;;0.00;0.00;;;;;;;15.26;64.03;99422.66;7357815;19;20017;-56
2023/07/29 05:23:57;;;;;;;0.03;0.03;;;;;;;15.27;64.67;99419.09;7348916;19;20038;-56
2023/07/29 05:26:22;;;;;;;0.00;0.00;;;;;;;15.28;64.00;99409.41;7358666;19;20027;-56
2023/07/29 05:28:48;;;;;;;0.00;0.00;;;;;;;15.26;64.13;99417.41;7355061;19;20664;-55
2023/07/29 05:31:13;;;;;;;0.10;0.10;;;;;;;15.31;64.16;99394.28;7356049;19;20105;-55
2023/07/29 05:33:39;;;;;;;0.10;0.10;;;;;;;15.32;64.63;99395.97;7357861;19;20007;-56
2023/07/29 05:36:05;;;;;;;0.00;0.00;;;;;;;15.21;64.20;99377.41;7357063;19;20078;-56
2023/07/29 05:38:30;;;;;;;0.10;0.10;;;;;;;15.28;64.25;99383.09;7357046;19;20046;-55
2023/07/29 05:40:56;;;;;;;0.03;0.03;;;;;;;15.37;64.06;99392.22;7355452;19;20015;-54
2023/07/29 05:43:24;;;;;;;0.00;0.00;;;;;;;15.39;64.59;99395.56;7355643;19;20015;-54
2023/07/29 05:45:50;;;;;;;0.00;0.00;;;;;;;15.40;64.38;99386.75;7356718;19;20462;-54
2023/07/29 05:48:16;;;;;;;0.00;0.00;;;;;;;15.37;64.33;99379.91;7355226;19;20021;-56
2023/07/29 05:50:41;;;;;;;0.05;0.05;;;;;;;15.28;64.67;99380.47;7355367;19;20015;-54
2023/07/29 05:53:07;;;;;;;0.10;0.10;;;;;;;15.46;64.19;99387.22;7353836;19;20015;-55
2023/07/29 05:55:32;;;;;;;0.03;0.03;;;;;;;15.48;64.00;99395.84;7356178;19;20018;-55
2023/07/29 05:57:58;;;;;;;0.00;0.00;;;;;;;15.51;64.49;99395.66;7342836;19;20119;-55
2023/07/29 06:00:23;;;;;;;0.00;0.00;;;;;;;15.47;64.51;99388.06;7353174;19;20042;-55
2023/07/29 06:02:48;;;;;;;0.00;0.00;;;;;;;15.56;64.70;99403.22;7350413;19;20972;-56
2023/07/29 06:05:14;;;;;;;0.00;0.00;;;;;;;15.58;64.15;99401.38;7354469;19;20014;-53
2023/07/29 06:07:43;;;;;;;0.10;0.10;;;;;;;15.62;63.72;99391.50;7354292;19;20022;-55
2023/07/29 06:10:11;;;;;;;0.00;0.00;;;;;;;15.58;64.22;99378.53;7353962;19;20485;-56
2023/07/29 06:12:37;;;;;;;0.00;0.00;;;;;;;15.62;64.29;99384.44;7353057;19;20010;-56
2023/07/29 06:15:03;;;;;;;0.00;0.00;;;;;;;15.67;64.44;99392.91;7353239;19;20006;-55
2023/07/29 06:17:28;;;;;;;0.00;0.00;;;;;;;15.72;64.16;99404.00;7355022;19;20741;-54
2023/07/29 06:19:54;;;;;;;0.00;0.00;;;;;;;15.75;64.55;99397.66;7349543;19;20014;-56
2023/07/29 06:22:19;;;;;;;0.00;0.00;;;;;;;15.78;64.47;99397.47;7354300;19;20917;-55
2023/07/29 06:24:45;;;;;;;0.05;0.05;;;;;;;15.82;64.20;99394.56;7350298;19;20014;-56
2023/07/29 06:27:10;;;;;;;0.00;0.00;;;;;;;15.86;64.19;99404.88;7351894;19;20014;-55
2023/07/29 06:29:36;;;;;;;0.10;0.10;;;;;;;15.87;64.40;99402.16;7350615;19;20011;-55
2023/07/29 06:32:01;;;;;;;0.03;0.03;;;;;;;15.89;63.80;99396.78;7353819;19;20018;-55
2023/07/29 06:34:27;;;;;;;0.00;0.00;;;;;;;15.91;63.78;99397.50;7355940;19;20014;-56
2023/07/29 06:36:52;;;;;;;0.08;0.08;;;;;;;15.94;64.06;99397.31;7349499;19;20022;-56
2023/07/29 06:39:17;;;;;;;0.00;0.00;;;;;;;15.97;63.94;99391.88;7354804;19;20477;-56
2023/07/29 06:41:43;;;;;;;0.00;0.00;;;;;;;16.01;63.73;99403.88;7351877;19;20026;-55
2023/07/29 06:44:08;;;;;;;0.03;0.03;;;;;;;16.02;64.37;99400.31;7352949;19;20657;-55
2023/07/29 06:46:34;;;;;;;0.00;0.00;;;;;;;16.06;63.77;99417.56;7352487;19;20007;-55
2023/07/29 06:48:59;;;;;;;0.00;0.00;;;;;;;16.08;63.88;99406.00;7350706;19;20034;-54
2023/07/29 06:51:24;;;;;;;0.10;0.10;;;;;;;16.12;63.60;99416.31;7351482;19;20877;-55
2023/07/29 06:53:50;;;;;;;0.10;0.10;;;;;;;16.15;64.00;99416.13;7352227;19;20010;-53
2023/07/29 06:56:15;;;;;;;0.00;0.00;;;;;;;16.17;63.69;99415.09;7352661;19;20024;-54
2023/07/29 06:58:41;;;;;;;0.00;0.00;;;;;;;16.18;64.25;99408.88;7354309;19;20055;-55
2023/07/29 07:01:06;;;;;;;0.00;0.00;;;;;;;16.22;63.46;99420.91;7349730;19;20011;-56
2023/07/29 07:03:31;;;;;;;0.05;0.05;;;;;;;16.27;64.02;99416.19;7353104;19;20007;-55
2023/07/29 07:05:57;;;;;;;0.10;0.10;;;;;;;16.28;64.08;99419.66;7350780;19;20016;-56
2023/07/29 07:08:22;;;;;;;0.00;0.00;;;;;;;16.36;63.40;99409.44;7352948;19;20131;-54
2023/07/29 07:10:48;;;;;;;0.00;0.00;;;;;;;16.39;63.92;99413.66;7359992;19;20039;-56
2023/07/29 07:13:13;;;;;;;0.03;0.03;;;;;;;16.41;63.32;99417.03;7354086;19;20044;-56
2023/07/29 07:15:38;;;;;;;0.05;0.05;;;;;;;16.46;63.42;99415.75;7358558;19;20782;-56
2023/07/29 07:18:04;;;;;;;0.00;0.00;;;;;;;16.51;63.22;99424.19;7358682;19;20456;-56
2023/07/29 07:20:29;;;;;;;0.10;0.10;;;;;;;16.53;63.43;99410.94;7359756;19;20014;-53
2023/07/29 07:22:55;;;;;;;0.00;0.00;;;;;;;16.57;63.21;99412.41;7353145;19;20026;-54
2023/07/29 07:25:21;;;;;;;0.05;0.05;;;;;;;16.59;63.35;99406.09;7358069;19;20048;-54
2023/07/29 07:27:46;;;;;;;0.00;0.00;;;;;;;16.64;63.15;99404.94;7360409;19;21242;-56
2023/07/29 07:30:11;;;;;;;0.00;0.00;;;;;;;16.66;63.26;99417.03;7342760;19;20011;-56
2023/07/29 07:32:37;;;;;;;0.10;0.10;;;;;;;16.71;63.12;99412.34;7360417;19;20474;-55
2023/07/29 07:35:04;;;;;;;0.00;0.00;;;;;;;16.76;63.12;99414.66;7353382;19;20017;-54
2023/07/29 07:37:29;;;;;;;0.10;0.10;;;;;;;16.74;62.62;99420.03;7357773;19;21451;-56
2023/07/29 07:39:54;;;;;;;0.00;0.00;;;;;;;16.83;63.29;99429.97;7359241;19;20098;-55
2023/07/29 07:42:20;;;;;;;0.00;0.00;;;;;;;16.87;62.78;99433.22;7360740;19;20007;-55
2023/07/29 07:44:45;;;;;;;0.10;0.10;;;;;;;16.91;62.67;99420.66;7357547;19;20010;-55
2023/07/29 07:47:11;;;;;;;0.05;0.05;;;;;;;16.94;62.95;99420.47;7357960;19;20367;-56
2023/07/29 07:49:36;;;;;;;0.00;0.00;;;;;;;16.99;62.67;99428.91;7356813;19;20019;-57
2023/07/29 07:52:02;;;;;;;0.10;0.10;;;;;;;17.03;62.62;99431.22;7360729;19;20022;-57
2023/07/29 07:54:27;;;;;;;0.00;0.00;;;;;;;17.08;62.45;99454.63;7359431;19;20087;-54
2023/07/29 07:56:52;;;;;;;0.10;0.10;;;;;;;17.14;62.48;99433.13;7359745;19;20159;-55
2023/07/29 07:59:18;;;;;;;0.10;0.10;;;;;;;17.18;62.65;99444.28;7358654;19;20014;-56
2023/07/29 08:01:43;;;;;;;0.00;0.00;;;;;;;17.22;62.53;99432.56;7356424;19;20010;-56
2023/07/29 08:04:08;;;;;;;0.00;0.00;;;;;;;17.27;62.68;99438.34;7355708;19;20011;-56
2023/07/29 08:06:35;;;;;;;0.00;0.00;;;;;;;17.31;62.12;99445.94;7356952;19;20007;-56
2023/07/29 08:09:00;;;;;;;0.03;0.03;;;;;;;17.35;62.31;99436.88;7354064;19;20086;-57
2023/07/29 08:11:26;;;;;;;0.00;0.00;;;;;;;17.42;62.68;99452.25;7359932;19;20020;-55
2023/07/29 08:13:51;;;;;;;0.08;0.08;;;;;;;17.48;62.62;99436.00;7356565;19;20014;-55
2023/07/29 08:16:17;;;;;;;0.10;0.10;;;;;;;17.53;61.98;99433.84;7352912;19;20018;-56
2023/07/29 08:18:42;;;;;;;0.00;0.00;;;;;;;17.57;62.16;99456.44;7356066;19;20873;-54
2023/07/29 08:21:07;;;;;;;0.00;0.00;;;;;;;17.64;62.02;99426.03;7357898;19;20034;-57
2023/07/29 08:23:35;;;;;;;0.00;0.00;;;;;;;17.71;61.97;99437.84;7353734;19;20394;-53
2023/07/29 08:26:03;;;;;;;0.05;0.05;;;;;;;17.76;61.65;99437.53;7352168;19;20844;-55
2023/07/29 08:28:34;;;;;;;0.00;0.00;;;;;;;17.82;61.26;99439.72;7351431;19;20489;-55
2023/07/29 08:31:00;;;;;;;0.10;0.10;;;;;;;17.84;61.39;99443.94;7356810;19;20453;-55
2023/07/29 08:33:25;;;;;;;0.03;0.03;;;;;;;17.86;61.78;99441.19;7350447;19;20030;-57
2023/07/29 08:35:51;;;;;;;0.08;0.08;;;;;;;17.89;61.27;99444.47;7359632;19;20010;-56
2023/07/29 08:38:16;;;;;;;0.10;0.10;;;;;;;17.96;61.05;99451.94;7354119;19;20035;-57
2023/07/29 08:40:49;;;;;;;0.00;0.00;;;;;;;18.05;61.08;99452.09;7357257;19;20010;-54
2023/07/29 08:43:18;;;;;;;0.00;0.00;;;;;;;18.02;60.24;99438.25;7356213;19;20027;-56
2023/07/29 08:45:44;;;;;;;0.00;0.00;;;;;;;18.16;60.75;99438.09;7359063;19;20014;-57
2023/07/29 08:48:11;;;;;;;0.00;0.00;;;;;;;18.20;60.30;99436.91;7354163;19;20031;-56
2023/07/29 08:50:37;;;;;;;0.10;0.10;;;;;;;18.26;59.91;99436.44;7357999;19;20576;-56
2023/07/29 08:53:06;;;;;;;0.00;0.00;;;;;;;18.31;60.20;99455.44;7354343;19;20014;-55
2023/07/29 08:55:32;;;;;;;0.00;0.00;;;;;;;18.35;59.73;99448.97;7355705;19;20691;-57
2023/07/29 08:57:59;;;;;;;0.10;0.10;;;;;;;18.38;59.65;99458.47;7352833;19;20027;-56
2023/07/29 09:00:25;;;;;;;0.00;0.00;;;;;;;18.42;59.91;99458.13;7358554;19;20014;-55
2023/07/29 09:02:51;;;;;;;0.10;0.10;;;;;;;18.46;60.09;99455.25;7353240;19;20571;-56
2023/07/29 09:05:16;;;;;;;0.00;0.00;;;;;;;18.51;59.70;99458.41;7358649;19;20010;-56
2023/07/29 09:07:44;;;;;;;0.10;0.10;;;;;;;18.60;59.70;99462.97;7356084;19;20018;-57
2023/07/29 09:10:12;;;;;;;;;;;;;;;18.75;59.78;99448.63;7355234;19;20010;-55
2023/07/29 09:12:38;;;;;;;0.10;0.10;;;;;;;18.75;59.11;99461.84;7352682;19;19921;-56
2023/07/29 09:15:04;;;;;;;0.00;0.00;;;;;;;18.79;59.22;99460.66;7353719;19;20011;-56
2023/07/29 09:17:32;;;;;;;0.00;0.00;;;;;;;18.88;59.39;99462.59;7355170;19;20014;-56
2023/07/29 09:19:57;;;;;;;0.10;0.10;;;;;;;18.99;59.69;99467.06;7354974;19;20022;-57
2023/07/29 09:22:25;;;;;;;0.00;0.00;;;;;;;19.14;59.00;99459.75;7350148;19;20134;-57
2023/07/29 09:24:51;;;;;;;0.10;0.10;;;;;;;19.34;58.66;99459.03;7354064;19;20041;-57
2023/07/29 09:27:27;;;;;;;0.00;0.00;;;;;;;19.60;58.71;99486.09;7353480;19;20750;-56
2023/07/29 09:29:53;;;;;;;0.00;0.00;;;;;;;19.60;60.29;99442.91;7351468;19;20026;-57
2023/07/29 09:32:24;;;;;;;0.00;0.00;;;;;;;19.84;60.66;99461.28;7356054;19;20838;-56
2023/07/29 09:34:50;;;;;;;0.08;0.08;;;;;;;19.83;61.45;99473.69;7352778;19;20956;-56
2023/07/29 09:37:23;;;;;;;0.00;0.00;;;;;;;19.82;60.67;99479.09;7353776;19;20018;-56
2023/07/29 09:39:49;;;;;;;0.00;0.00;;;;;;;19.82;59.60;99474.66;7352477;19;20017;-57
2023/07/29 09:42:19;;;;;;;0.10;0.10;;;;;;;19.71;60.68;99472.00;7352520;19;20026;-55
2023/07/29 09:44:45;;;;;;;0.00;0.00;;;;;;;19.70;60.85;99486.22;7353497;19;20010;-57
2023/07/29 09:47:20;;;;;;;0.00;0.00;;;;;;;19.66;59.72;99490.06;7353193;19;20026;-56
2023/07/29 09:49:45;;;;;;;0.10;0.10;;;;;;;19.51;60.86;99475.38;7340688;19;21000;-57
2023/07/29 09:52:11;;;;;;;0.10;0.10;;;;;;;19.37;62.05;99479.97;7341325;19;20014;-56
2023/07/29 09:54:37;;;;;;;0.03;0.03;;;;;;;19.19;62.20;99462.88;7349974;19;20010;-56
2023/07/29 09:57:02;;;;;;;0.00;0.00;;;;;;;19.22;61.66;99485.63;7350486;19;20399;-56
2023/07/29 09:59:28;;;;;;;0.10;0.10;;;;;;;19.18;61.64;99485.00;7352777;19;20074;-57
2023/07/29 10:01:53;;;;;;;0.10;0.10;;;;;;;19.17;61.96;99480.69;7351092;19;20383;-57
2023/07/29 10:04:19;;;;;;;0.03;0.03;;;;;;;19.17;62.30;99485.97;7353740;19;20031;-56
2023/07/29 10:06:46;;;;;;;0.00;0.00;;;;;;;19.18;63.09;99488.50;7352658;19;20799;-56
2023/07/29 10:09:13;;;;;;;0.00;0.00;;;;;;;19.22;62.13;99485.63;7353918;19;20014;-56
2023/07/29 10:11:40;;;;;;;0.03;0.03;;;;;;;19.17;63.13;99489.47;7351516;19;20811;-57
2023/07/29 10:14:06;;;;;;;0.10;0.10;;;;;;;19.21;63.89;99495.38;7354279;19;20879;-57
2023/07/29 10:16:32;;;;;;;0.00;0.00;;;;;;;19.12;64.69;99488.13;7354942;19;20034;-57
2023/07/29 10:18:58;;;;;;;0.10;0.10;;;;;;;19.01;65.76;99501.31;7352512;19;20505;-57
2023/07/29 10:21:24;;;;;;;0.10;0.10;;;;;;;18.84;65.02;99503.47;7352854;19;21688;-57
2023/07/29 10:23:53;;;;;;;0.00;0.00;;;;;;;18.74;66.29;99507.75;7354605;19;20019;-57
2023/07/29 10:26:20;;;;;;;0.00;0.00;;;;;;;18.65;67.79;99511.06;7349936;19;20014;-58
2023/07/29 10:28:47;;;;;;;0.00;0.00;;;;;;;18.72;68.58;99498.28;7355008;19;20006;-57
2023/07/29 10:31:18;;;;;;;0.10;0.10;;;;;;;18.78;69.78;99474.84;7350754;19;20033;-57
2023/07/29 10:33:44;;;;;;;0.10;0.10;;;;;;;19.09;69.81;99497.13;7350601;19;20462;-58
2023/07/29 10:36:10;;;;;;;0.10;0.10;;;;;;;19.28;70.02;99474.56;7349901;19;20046;-57
2023/07/29 10:38:35;;;;;;;0.00;0.00;;;;;;;19.58;69.33;99493.31;7349988;19;20579;-57
2023/07/29 10:41:01;;;;;;;0.00;0.00;;;;;;;19.85;68.37;99494.75;7351750;19;20011;-58
2023/07/29 10:43:34;;;;;;;0.10;0.10;;;;;;;20.06;68.06;99492.16;7351314;19;20007;-56
2023/07/29 10:46:19;;;;;;;0.00;0.00;;;;;;;20.33;65.57;99500.53;7351711;19;20010;-56
2023/07/29 10:48:55;;;;;;;0.10;0.10;;;;;;;20.33;65.96;99489.09;7348711;19;20022;-57
2023/07/29 10:51:44;;;;;;;0.00;0.00;;;;;;;20.51;64.82;99502.66;7352094;19;20624;-57
2023/07/29 10:54:10;;;;;;;0.03;0.03;;;;;;;20.49;63.92;99504.59;7352364;19;20701;-56
2023/07/29 10:56:40;;;;;;;0.00;0.00;;;;;;;20.50;64.74;99506.28;7353611;19;20019;-57
2023/07/29 10:59:11;;;;;;;0.10;0.10;;;;;;;20.48;64.58;99509.06;7350745;19;20034;-57
2023/07/29 11:01:39;;;;;;;0.00;0.00;;;;;;;20.43;65.63;99509.41;7355191;19;20022;-57
2023/07/29 11:04:31;;;;;;;0.10;0.10;;;;;;;20.58;65.08;99517.06;7354218;19;20014;-56
2023/07/29 11:07:10;;;;;;;0.00;0.00;;;;;;;20.76;65.85;99512.91;7250343;19;2004569;-57
2023/07/29 11:09:47;;;;;;;0.10;0.10;;;;;;;21.07;66.36;99510.31;7351992;19;20443;-57
2023/07/29 11:12:48;;;;;;;0.10;0.10;;;;;;;21.47;66.43;99513.91;7353097;19;20014;-56
2023/07/29 11:15:26;;;;;;;0.00;0.00;;;;;;;21.85;65.20;99501.75;7231099;19;2004406;-56
2023/07/29 11:17:55;;;;;;;0.00;0.00;;;;;;;22.34;62.09;99502.66;7349345;19;20064;-57
2023/07/29 11:20:28;;;;;;;0.10;0.10;;;;;;;22.71;61.20;99507.31;7347933;19;20010;-56
2023/07/29 11:22:55;;;;;;;0.10;0.10;;;;;;;23.01;58.64;99509.81;7350853;19;20719;-57
2023/07/29 11:25:23;;;;;;;0.08;0.08;;;;;;;23.39;58.21;99507.16;7349472;19;20026;-56
2023/07/29 11:27:52;;;;;;;0.10;0.10;;;;;;;23.67;56.98;99505.38;7351572;19;20793;-55
2023/07/29 11:30:17;;;;;;;0.10;0.10;;;;;;;23.99;56.30;99529.78;7343534;19;20060;-56
2023/07/29 11:32:44;;;;;;;0.05;0.05;;;;;;;24.30;56.22;99497.44;7348179;19;20101;-57